createdAt,value
2022-09-12T00:01:53.976Z,16.20
2022-09-12T00:06:53.216Z,16.20
2022-09-12T00:11:52.144Z,16.20
2022-09-12T00:16:51.181Z,16.10
2022-09-12T00:21:50.158Z,16.10
2022-09-12T00:26:49.197Z,16.00
2022-09-12T00:31:48.212Z,15.90
2022-09-12T00:36:47.183Z,15.80
2022-09-12T00:41:46.221Z,15.70
2022-09-12T00:46:45.229Z,15.60
2022-09-12T00:51:44.228Z,15.50
2022-09-12T00:56:43.240Z,15.50
2022-09-12T01:01:43.033Z,15.40
2022-09-12T01:06:42.789Z,15.30
2022-09-12T01:11:42.113Z,15.30
2022-09-12T01:16:41.214Z,15.20
2022-09-12T01:21:40.454Z,15.20
2022-09-12T01:26:39.054Z,15.10
2022-09-12T01:31:38.440Z,15.10
2022-09-12T01:36:37.897Z,15.00
2022-09-12T01:41:37.209Z,14.90
2022-09-12T01:46:36.014Z,14.90
2022-09-12T01:51:35.396Z,14.80
2022-09-12T01:56:34.316Z,14.80
2022-09-12T02:01:33.378Z,14.80
2022-09-12T02:06:32.074Z,14.70
2022-09-12T02:11:31.331Z,14.60
2022-09-12T02:16:30.216Z,14.60
2022-09-12T02:21:31.200Z,14.60
2022-09-12T02:26:30.143Z,14.60
2022-09-12T02:31:29.455Z,14.60
2022-09-12T02:36:28.177Z,14.60
2022-09-12T02:41:27.215Z,14.60
2022-09-12T02:46:26.209Z,14.70
2022-09-12T02:51:25.207Z,14.70
2022-09-12T02:56:24.116Z,14.70
2022-09-12T03:01:23.374Z,14.70
2022-09-12T03:06:22.239Z,14.80
2022-09-12T03:11:21.363Z,14.80
2022-09-12T03:16:20.097Z,14.80
2022-09-12T03:21:19.279Z,14.80
2022-09-12T03:26:18.399Z,14.70
2022-09-12T03:31:17.313Z,14.80
2022-09-12T03:36:16.784Z,14.70
2022-09-12T03:41:16.167Z,14.70
2022-09-12T03:46:15.384Z,14.70
2022-09-12T03:51:14.171Z,14.70
2022-09-12T03:56:13.135Z,14.70
2022-09-12T04:01:12.997Z,14.70
2022-09-12T04:06:12.526Z,14.70
2022-09-12T04:11:11.341Z,14.70
2022-09-12T04:16:10.169Z,14.70
2022-09-12T04:21:09.263Z,14.70
2022-09-12T04:26:08.258Z,14.70
2022-09-12T04:31:07.508Z,14.60
2022-09-12T04:36:06.387Z,14.60
2022-09-12T04:41:05.304Z,14.70
2022-09-12T04:46:04.850Z,14.70
2022-09-12T04:51:04.641Z,14.70
2022-09-12T04:56:03.367Z,14.80
2022-09-12T05:01:02.435Z,14.80
2022-09-12T05:06:01.197Z,14.90
2022-09-12T05:11:00.408Z,14.90
2022-09-12T05:15:59.694Z,14.90
2022-09-12T05:20:58.676Z,15.00
2022-09-12T05:25:57.583Z,15.10
2022-09-12T05:30:59.316Z,15.20
2022-09-12T05:35:58.196Z,15.30
2022-09-12T05:40:57.312Z,15.50
2022-09-12T05:45:56.441Z,15.60
2022-09-12T05:50:55.344Z,15.80
2022-09-12T05:55:54.358Z,15.90
2022-09-12T06:00:53.432Z,16.00
2022-09-12T06:05:52.209Z,16.20
2022-09-12T06:10:51.459Z,16.40
2022-09-12T06:15:50.415Z,16.60
2022-09-12T06:20:49.228Z,16.70
2022-09-12T06:25:48.334Z,16.90
2022-09-12T06:30:48.478Z,17.10
2022-09-12T06:35:47.324Z,17.20
2022-09-12T06:40:46.799Z,17.40
2022-09-12T06:45:45.305Z,17.70
2022-09-12T06:50:44.308Z,17.90
2022-09-12T06:55:43.151Z,18.10
2022-09-12T07:00:42.216Z,18.30
2022-09-12T07:05:41.152Z,18.50
2022-09-12T07:10:40.246Z,18.80
2022-09-12T07:15:39.660Z,19.10
2022-09-12T07:20:38.877Z,19.30
2022-09-12T07:25:37.492Z,19.60
2022-09-12T07:30:36.431Z,19.90
2022-09-12T07:35:35.396Z,20.10
2022-09-12T07:40:34.414Z,20.20
2022-09-12T07:45:33.321Z,20.20
2022-09-12T07:50:33.140Z,20.30
2022-09-12T07:55:32.464Z,20.40
2022-09-12T08:00:34.162Z,20.50
2022-09-12T08:05:33.541Z,20.70
2022-09-12T08:10:32.389Z,20.90
2022-09-12T08:15:31.877Z,21.10
2022-09-12T08:20:31.433Z,21.10
2022-09-12T08:25:30.657Z,21.10
2022-09-12T08:30:29.637Z,21.20
2022-09-12T08:35:28.301Z,21.20
2022-09-12T08:40:27.490Z,21.20
2022-09-12T08:45:26.332Z,21.20
2022-09-12T08:50:25.789Z,21.30
2022-09-12T08:55:24.613Z,21.30
2022-09-12T09:00:23.538Z,21.60
2022-09-12T09:05:22.834Z,21.90
2022-09-12T09:10:22.267Z,22.30
2022-09-12T09:15:23.307Z,22.70
2022-09-12T09:20:22.973Z,23.20
2022-09-12T09:25:23.155Z,23.70
2022-09-12T09:30:22.307Z,24.00
2022-09-12T09:35:21.318Z,23.90
2022-09-12T09:40:20.383Z,23.60
2022-09-12T09:45:19.342Z,23.20
2022-09-12T09:50:19.241Z,22.90
2022-09-12T09:55:18.593Z,22.80
2022-09-12T10:00:17.365Z,22.70
2022-09-12T10:05:16.370Z,22.80
2022-09-12T10:10:15.720Z,22.80
2022-09-12T10:15:14.426Z,22.90
2022-09-12T10:20:21.993Z,23.00
2022-09-12T10:25:14.681Z,23.10
2022-09-12T10:30:13.406Z,23.20
2022-09-12T10:35:12.506Z,23.30
2022-09-12T10:40:11.329Z,23.50
2022-09-12T10:45:10.520Z,23.70
2022-09-12T10:50:12.590Z,23.90
2022-09-12T10:55:10.597Z,24.10
2022-09-12T11:00:12.445Z,24.30
2022-09-12T11:05:11.381Z,24.50
2022-09-12T11:10:10.517Z,24.60
2022-09-12T11:15:09.515Z,24.90
2022-09-12T11:20:08.625Z,25.20
2022-09-12T11:25:07.524Z,25.30
2022-09-12T11:30:07.115Z,25.40
2022-09-12T11:35:06.677Z,25.50
2022-09-12T11:40:05.926Z,25.60
2022-09-12T11:45:05.759Z,25.70
2022-09-12T11:50:04.477Z,25.80
2022-09-12T11:55:03.751Z,25.80
2022-09-12T12:00:02.461Z,25.80
2022-09-12T12:05:01.485Z,26.00
2022-09-12T12:10:00.392Z,26.10
2022-09-12T12:14:59.402Z,26.20
2022-09-12T12:20:02.164Z,26.30
2022-09-12T12:25:02.425Z,26.40
2022-09-12T12:30:01.462Z,26.50
2022-09-12T12:35:00.502Z,26.70
2022-09-12T12:40:04.275Z,26.70
2022-09-12T12:45:03.832Z,26.90
2022-09-12T12:50:02.409Z,27.10
2022-09-12T12:55:01.391Z,27.10
2022-09-12T13:00:00.457Z,27.20
2022-09-12T13:04:59.430Z,27.20
2022-09-12T13:09:58.444Z,27.30
2022-09-12T13:14:57.967Z,27.30
2022-09-12T13:20:16.910Z,27.40
2022-09-12T13:24:57.415Z,27.50
2022-09-12T13:29:56.421Z,27.70
2022-09-12T13:34:55.547Z,27.80
2022-09-12T13:39:55.108Z,27.90
2022-09-12T13:44:54.611Z,27.90
2022-09-12T13:49:53.497Z,28.00
2022-09-12T13:54:52.699Z,28.00
2022-09-12T13:59:52.039Z,28.10
2022-09-12T14:05:09.935Z,28.20
2022-09-12T14:10:11.557Z,28.40
2022-09-12T14:15:11.635Z,28.50
2022-09-12T14:20:10.811Z,28.30
2022-09-12T14:25:10.527Z,28.20
2022-09-12T14:30:09.647Z,28.10
2022-09-12T14:35:08.652Z,28.00
2022-09-12T14:40:07.720Z,27.90
2022-09-12T14:45:06.784Z,27.90
2022-09-12T14:50:11.131Z,27.80
2022-09-12T14:55:08.988Z,27.70
2022-09-12T15:00:07.716Z,27.70
2022-09-12T15:05:06.621Z,27.80
2022-09-12T15:10:05.620Z,27.80
2022-09-12T15:15:04.652Z,27.80
2022-09-12T15:20:03.742Z,27.80
2022-09-12T15:25:02.595Z,27.80
2022-09-12T15:30:01.969Z,27.50
2022-09-12T15:35:00.588Z,27.30
2022-09-12T15:39:59.831Z,27.20
2022-09-12T15:45:02.547Z,27.10
2022-09-12T15:50:00.590Z,27.00
2022-09-12T15:54:59.554Z,27.00
2022-09-12T15:59:58.641Z,26.90
2022-09-12T16:04:57.633Z,26.80
2022-09-12T16:09:56.641Z,26.60
2022-09-12T16:14:55.619Z,26.40
2022-09-12T16:19:55.500Z,26.20
2022-09-12T16:24:54.553Z,26.10
2022-09-12T16:29:53.710Z,26.00
2022-09-12T16:34:52.613Z,25.90
2022-09-12T16:39:52.033Z,25.90
2022-09-12T16:44:50.645Z,25.80
2022-09-12T16:49:50.801Z,25.80
2022-09-12T16:54:49.686Z,25.70
2022-09-12T16:59:48.702Z,25.70
2022-09-12T17:04:47.600Z,25.50
2022-09-12T17:09:48.301Z,25.40
2022-09-12T17:14:46.573Z,25.30
2022-09-12T17:19:45.659Z,25.00
2022-09-12T17:24:44.675Z,24.90
2022-09-12T17:29:43.812Z,24.70
2022-09-12T17:34:42.896Z,24.40
2022-09-12T17:39:42.225Z,24.20
2022-09-12T17:44:40.723Z,24.00
2022-09-12T17:49:40.096Z,23.80
2022-09-12T17:54:39.432Z,23.60
2022-09-12T17:59:38.884Z,23.40
2022-09-12T18:04:38.438Z,23.20
2022-09-12T18:09:37.825Z,23.00
2022-09-12T18:14:37.238Z,22.80
2022-09-12T18:19:35.849Z,22.70
2022-09-12T18:24:34.852Z,22.40
2022-09-12T18:29:33.880Z,22.30
2022-09-12T18:34:32.702Z,22.10
2022-09-12T18:39:31.868Z,22.00
2022-09-12T18:44:30.993Z,21.90
2022-09-12T18:49:29.943Z,21.90
2022-09-12T18:54:28.957Z,21.80
2022-09-12T18:59:27.780Z,21.80
2022-09-12T19:04:26.958Z,21.70
2022-09-12T19:09:25.931Z,21.70
2022-09-12T19:14:25.767Z,21.60
2022-09-12T19:19:24.834Z,21.50
2022-09-12T19:24:23.809Z,21.50
2022-09-12T19:29:22.821Z,21.50
2022-09-12T19:34:21.918Z,21.40
2022-09-12T19:39:20.883Z,21.40
2022-09-12T19:44:20.154Z,21.40
2022-09-12T19:49:18.786Z,21.40
2022-09-12T19:54:17.904Z,21.30
2022-09-12T19:59:16.905Z,21.30
2022-09-12T20:04:15.896Z,21.30
2022-09-12T20:09:14.923Z,21.30
2022-09-12T20:14:14.185Z,21.30
2022-09-12T20:19:12.925Z,21.30
2022-09-12T20:24:11.953Z,21.20
2022-09-12T20:29:10.954Z,21.20
2022-09-12T20:34:13.035Z,21.20
2022-09-12T20:39:11.858Z,21.30
2022-09-12T20:44:10.862Z,21.30
2022-09-12T20:49:09.857Z,21.30
2022-09-12T20:54:08.872Z,21.30
2022-09-12T20:59:07.884Z,21.30
2022-09-12T21:04:07.081Z,21.30
2022-09-12T21:09:07.197Z,21.30
2022-09-12T21:14:05.934Z,21.20
2022-09-12T21:19:04.836Z,21.20
2022-09-12T21:24:03.964Z,21.10
2022-09-12T21:29:03.072Z,21.00
2022-09-12T21:34:02.009Z,21.00
2022-09-12T21:39:00.997Z,21.00
2022-09-12T21:44:00.320Z,20.90
2022-09-12T21:48:59.113Z,20.80
2022-09-12T21:53:58.356Z,20.80
2022-09-12T21:58:57.041Z,20.70
2022-09-12T22:03:55.893Z,20.60
2022-09-12T22:08:55.963Z,20.60
2022-09-12T22:13:54.908Z,20.50
2022-09-12T22:18:53.910Z,20.50
2022-09-12T22:24:11.169Z,20.50
2022-09-12T22:29:10.322Z,20.40
2022-09-12T22:34:09.018Z,20.40
2022-09-12T22:39:07.968Z,20.30
2022-09-12T22:44:06.993Z,20.20
2022-09-12T22:49:05.993Z,20.20
2022-09-12T22:54:05.761Z,20.10
2022-09-12T22:59:05.160Z,20.00
2022-09-12T23:04:04.845Z,20.00
2022-09-12T23:09:04.000Z,19.90
2022-09-12T23:14:03.254Z,19.80
2022-09-12T23:19:02.115Z,19.80
2022-09-12T23:24:00.916Z,19.70
2022-09-12T23:28:59.927Z,19.80
2022-09-12T23:33:58.935Z,19.80
2022-09-12T23:38:58.318Z,19.80
2022-09-12T23:43:56.955Z,19.90
2022-09-12T23:48:55.959Z,19.90
2022-09-12T23:53:54.971Z,19.90
2022-09-12T23:58:53.985Z,19.80
